CYNL

METAR CYNL 181600Z AUTO 22003KT 9SM CLR M29/M34 A3034 RMK AO1 PRESFR SLP383
METAR
LOCATION
CYNL
DATE - TIME
181600Z
WIND
220 TRUE @ 3 KNOTS
VISIBILITY
9SM
RUNWAY VISUAL RANGE
NOT REPORTED
WEATHER
CLOUDINESS
CLR
TEMP / DEWPOINT
-29 ºC / -34 ºC
ALTIMETER
30.34 in. Hg
RECENT WEATHER
NOT REPORTED
WIND SHEAR
NOT REPORTED
REMARKS
RMK AO1 PRESFR SLP383
SEA LEVEL PRESSURE: hPa

CYNL

METAR CYNL 181500Z AUTO 22003KT 9SM CLR M34/M39 A3037 RMK AO1 PRESFR SLP397
METAR
LOCATION
CYNL
DATE - TIME
181500Z
WIND
220 TRUE @ 3 KNOTS
VISIBILITY
9SM
RUNWAY VISUAL RANGE
NOT REPORTED
WEATHER
CLOUDINESS
CLR
TEMP / DEWPOINT
-34 ºC / -39 ºC
ALTIMETER
30.37 in. Hg
RECENT WEATHER
NOT REPORTED
WIND SHEAR
NOT REPORTED
REMARKS
RMK AO1 PRESFR SLP397
SEA LEVEL PRESSURE: hPa

CYNL

METAR CYNL 181400Z AUTO 23005KT 9SM CLR M36/M40 A3040 RMK AO1 PRESFR SLP406
METAR
LOCATION
CYNL
DATE - TIME
181400Z
WIND
230 TRUE @ 5 KNOTS
VISIBILITY
9SM
RUNWAY VISUAL RANGE
NOT REPORTED
WEATHER
CLOUDINESS
CLR
TEMP / DEWPOINT
-36 ºC / -40 ºC
ALTIMETER
30.40 in. Hg
RECENT WEATHER
NOT REPORTED
WIND SHEAR
NOT REPORTED
REMARKS
RMK AO1 PRESFR SLP406
SEA LEVEL PRESSURE: hPa

Your time UTC time
 
 
Weather data provided by AXYS Technologies Inc., www.axystechnologies.com
 
Station History